Time;durP1;ratioP1;P1;durP2;ratioP2;P2;SDS_P1;SDS_P2;PMS_P1;PMS_P2;Temp;Humidity;BMP_temperature;BMP_pressure;BME280_temperature;BME280_humidity;BME280_pressure;Samples;Min_cycle;Max_cycle;Signal;HPM_P1;HPM_P2
2023/04/28 00:01:14;;;;;;;29.40;13.80;;;;;;;0.82;75.39;101069.81;105137;1262;74916;-57
2023/04/28 00:03:42;;;;;;;26.60;12.40;;;;;;;0.80;75.29;101069.95;105138;1258;82486;-56
2023/04/28 00:06:10;;;;;;;23.50;12.80;;;;;;;0.80;75.32;101065.98;105149;1262;73533;-56
2023/04/28 00:08:40;;;;;;;26.60;14.40;;;;;;;0.80;75.38;101069.61;105114;1256;69186;-56
2023/04/28 00:11:09;;;;;;;35.20;16.80;;;;;;;0.80;75.51;101069.95;105077;1260;69201;-56
2023/04/28 00:13:38;;;;;;;31.00;15.90;;;;;;;0.80;75.71;101070.80;105164;1256;74918;-55
2023/04/28 00:16:06;;;;;;;23.60;12.10;;;;;;;0.80;75.67;101070.46;105164;1257;82435;-57
2023/04/28 00:18:34;;;;;;;21.40;10.20;;;;;;;0.81;75.90;101073.41;105232;1257;72644;-57
2023/04/28 00:21:03;;;;;;;16.70;9.40;;;;;;;0.81;75.85;101071.17;105124;1262;69278;-57
2023/04/28 00:23:31;;;;;;;19.60;9.40;;;;;;;0.81;75.93;101073.76;105232;1256;69129;-57
2023/04/28 00:26:00;;;;;;;14.80;8.50;;;;;;;0.82;76.08;101069.48;105201;1256;75044;-56
2023/04/28 00:28:28;;;;;;;19.30;9.40;;;;;;;0.83;76.12;101068.45;105154;1260;83501;-56
2023/04/28 00:31:09;;;;;;;19.70;10.80;;;;;;;0.84;76.37;101072.09;105160;1262;73816;-56
2023/04/28 00:33:38;;;;;;;17.30;9.30;;;;;;;0.89;76.42;101066.80;105196;1262;69228;-57
2023/04/28 00:36:07;;;;;;;16.80;8.40;;;;;;;0.93;76.51;101066.16;105212;1262;69174;-57
2023/04/28 00:38:37;;;;;;;12.20;7.70;;;;;;;0.93;76.45;101065.82;105212;1262;74950;-56
2023/04/28 00:41:05;;;;;;;14.20;8.60;;;;;;;0.90;76.38;101066.65;105187;1262;83703;-57
2023/04/28 00:43:46;;;;;;;14.80;7.90;;;;;;;0.90;76.41;101064.76;105152;1261;73752;-57
2023/04/28 00:46:24;;;;;;;15.80;9.10;;;;;;;0.91;76.55;101066.48;105088;1262;69255;-57
2023/04/28 00:48:52;;;;;;;17.00;9.20;;;;;;;0.90;76.70;101058.89;105093;1256;69079;-57
2023/04/28 00:51:20;;;;;;;16.30;9.20;;;;;;;0.87;76.81;101055.26;105164;1262;74810;-56
2023/04/28 00:53:50;;;;;;;17.50;9.20;;;;;;;0.86;76.70;101058.52;105213;1262;82591;-56
2023/04/28 00:56:18;;;;;;;19.10;8.90;;;;;;;0.85;76.86;101056.62;105123;1262;73901;-56
2023/04/28 00:58:46;;;;;;;15.80;8.60;;;;;;;0.90;77.14;101049.79;105205;1259;69121;-56
2023/04/28 01:01:16;;;;;;;15.40;8.00;;;;;;;0.96;77.24;101048.16;105206;1258;69152;-56
2023/04/28 01:03:45;;;;;;;17.70;7.90;;;;;;;1.00;77.15;101048.01;105236;1260;73977;-56
2023/04/28 01:06:15;;;;;;;16.00;8.50;;;;;;;1.00;77.36;101044.74;105064;1256;83874;-57
2023/04/28 01:08:47;;;;;;;29.80;14.50;;;;;;;1.01;77.25;101047.52;105100;1260;73640;-56
2023/04/28 01:11:16;;;;;;;29.10;14.10;;;;;;;1.03;77.47;101045.98;105223;1262;69201;-56
2023/04/28 01:13:58;;;;;;;18.30;8.70;;;;;;;1.05;77.31;101047.23;105099;1262;69214;-56
2023/04/28 01:16:27;;;;;;;;;;;;;;;1.05;77.56;101044.98;105219;1260;74923;-57
2023/04/28 01:18:57;;;;;;;30.50;11.80;;;;;;;1.09;77.73;101044.85;105112;1256;82843;-56
2023/04/28 01:21:29;;;;;;;35.90;13.20;;;;;;;1.11;77.69;101046.61;105099;1256;73831;-56
2023/04/28 01:23:58;;;;;;;39.00;13.40;;;;;;;1.12;77.80;101044.38;105074;1262;69425;-56
2023/04/28 01:26:26;;;;;;;44.80;16.70;;;;;;;1.14;78.04;101044.57;105216;1261;69212;-57
2023/04/28 01:28:54;;;;;;;42.00;14.70;;;;;;;1.17;78.12;101041.67;105040;1256;73943;-56
2023/04/28 01:31:24;;;;;;;27.60;11.20;;;;;;;1.22;78.21;101037.27;105178;1262;83449;-56
2023/04/28 01:33:52;;;;;;;19.40;9.20;;;;;;;1.26;78.39;101035.59;105142;1262;73664;-56
2023/04/28 01:36:22;;;;;;;19.00;9.20;;;;;;;1.32;78.57;101032.89;105044;1262;69203;-56
2023/04/28 01:38:51;;;;;;;16.70;9.70;;;;;;;1.37;78.53;101032.42;105161;1257;69043;-56
2023/04/28 01:41:20;;;;;;;23.00;11.10;;;;;;;1.40;78.61;101028.50;105061;1262;73851;-57
2023/04/28 01:43:48;;;;;;;21.60;11.10;;;;;;;1.43;78.60;101026.81;105063;1257;82451;-56
2023/04/28 01:46:16;;;;;;;20.30;11.20;;;;;;;1.45;78.54;101023.73;105184;1260;72674;-57
2023/04/28 01:48:44;;;;;;;20.00;11.90;;;;;;;1.46;78.40;101022.37;105146;1256;69105;-56
2023/04/28 01:51:13;;;;;;;22.00;12.20;;;;;;;1.47;78.64;101019.79;105039;1262;69188;-56
2023/04/28 01:53:41;;;;;;;21.80;11.80;;;;;;;1.47;78.57;101016.70;105206;1260;74684;-56
2023/04/28 01:56:10;;;;;;;19.70;11.50;;;;;;;1.47;78.53;101014.98;105021;1260;83378;-56
2023/04/28 01:58:38;;;;;;;21.10;9.40;;;;;;;1.47;78.74;101017.73;105157;1257;74173;-56
2023/04/28 02:01:07;;;;;;;16.60;8.70;;;;;;;1.48;78.65;101012.92;105140;1260;69132;-56
2023/04/28 02:03:35;;;;;;;14.40;8.90;;;;;;;1.49;78.79;101013.63;105164;1260;69131;-56
2023/04/28 02:06:04;;;;;;;20.80;9.40;;;;;;;1.50;78.77;101017.42;105170;1260;73361;-56
2023/04/28 02:08:33;;;;;;;17.40;8.30;;;;;;;1.51;78.81;101017.25;105176;1260;83189;-56
2023/04/28 02:11:02;;;;;;;14.90;7.90;;;;;;;1.54;78.91;101016.25;105067;1271;71754;-56
2023/04/28 02:13:31;;;;;;;13.30;7.30;;;;;;;1.57;79.02;101011.29;105190;1261;69115;-57
2023/04/28 02:16:00;;;;;;;16.10;7.80;;;;;;;1.61;79.15;101008.55;105156;1260;69867;-56
2023/04/28 02:18:29;;;;;;;15.00;7.80;;;;;;;1.64;79.18;101006.35;105276;1262;73965;-56
2023/04/28 02:21:11;;;;;;;12.30;7.70;;;;;;;1.66;79.30;101009.48;105188;1260;83409;-56
2023/04/28 02:23:39;;;;;;;16.30;8.60;;;;;;;1.69;79.27;101004.85;105173;1260;72806;-56
2023/04/28 02:26:07;;;;;;;13.30;8.70;;;;;;;1.73;79.55;101004.36;105186;1256;69237;-57
2023/04/28 02:28:36;;;;;;;16.10;8.50;;;;;;;1.76;79.46;100999.23;105189;1262;69283;-58
2023/04/28 02:31:07;;;;;;;15.90;8.80;;;;;;;1.78;79.45;100995.80;105230;1262;75106;-57
2023/04/28 02:33:36;;;;;;;13.20;8.90;;;;;;;1.82;79.36;101002.20;105178;1260;82524;-56
2023/04/28 02:36:06;;;;;;;14.20;8.50;;;;;;;1.83;79.51;101001.52;105221;1260;72736;-56
2023/04/28 02:38:34;;;;;;;12.70;8.00;;;;;;;1.85;79.55;101002.05;105212;1260;69181;-56
2023/04/28 02:41:04;;;;;;;16.40;9.10;;;;;;;1.84;79.48;101001.70;105168;1258;69192;-55
2023/04/28 02:43:32;;;;;;;17.10;8.70;;;;;;;1.84;79.63;101000.84;105220;1261;75128;-56
2023/04/28 02:46:04;;;;;;;15.90;8.70;;;;;;;1.83;79.66;100996.35;105206;1260;82625;-56
2023/04/28 02:48:36;;;;;;;17.30;8.50;;;;;;;1.81;79.64;100999.27;105172;1259;73936;-56
2023/04/28 02:51:04;;;;;;;14.80;8.30;;;;;;;1.81;79.56;100995.13;105210;1257;69405;-57
2023/04/28 02:53:33;;;;;;;16.60;8.80;;;;;;;1.81;79.76;100997.20;105041;1262;69222;-56
2023/04/28 02:56:03;;;;;;;13.80;8.30;;;;;;;1.82;79.94;100998.58;105233;1260;74797;-57
2023/04/28 02:58:32;;;;;;;15.40;8.70;;;;;;;1.81;79.89;100995.83;105111;1262;82670;-56
2023/04/28 03:01:00;;;;;;;13.90;8.00;;;;;;;1.81;79.75;100992.36;105204;1260;73435;-56
2023/04/28 03:03:29;;;;;;;13.50;7.90;;;;;;;1.83;80.02;100990.48;105246;1256;69201;-57
2023/04/28 03:05:58;;;;;;;15.50;9.30;;;;;;;1.85;80.24;100992.05;105239;1258;69115;-56
2023/04/28 03:08:26;;;;;;;16.70;8.70;;;;;;;1.86;80.15;100988.80;105209;1261;74548;-56
2023/04/28 03:10:55;;;;;;;13.50;8.10;;;;;;;1.86;79.97;100986.23;105125;1262;83148;-56
2023/04/28 03:13:24;;;;;;;17.40;9.40;;;;;;;1.85;80.03;100983.61;105108;1271;72810;-55
2023/04/28 03:15:52;;;;;;;19.00;10.00;;;;;;;1.86;80.38;100985.00;105218;1256;69177;-56
2023/04/28 03:18:21;;;;;;;22.30;11.70;;;;;;;1.86;80.08;100981.03;105186;1260;69690;-57
2023/04/28 03:20:49;;;;;;;25.60;14.30;;;;;;;1.87;80.29;100980.02;105150;1264;75246;-56
2023/04/28 03:23:17;;;;;;;33.30;17.00;;;;;;;1.87;80.30;100984.32;105162;1261;83966;-56
2023/04/28 03:25:46;;;;;;;32.50;16.40;;;;;;;1.89;80.52;100982.95;105020;1262;71776;-57
2023/04/28 03:28:15;;;;;;;30.10;14.80;;;;;;;1.92;80.46;100980.73;105024;1263;69108;-57
2023/04/28 03:30:43;;;;;;;29.00;14.70;;;;;;;1.93;80.64;100982.30;105243;1260;69233;-56
2023/04/28 03:33:11;;;;;;;31.60;14.20;;;;;;;1.96;80.72;100983.19;105183;1270;75218;-57
2023/04/28 03:35:41;;;;;;;26.20;13.60;;;;;;;1.98;80.86;100982.67;105215;1261;84646;-57
2023/04/28 03:38:10;;;;;;;27.70;14.20;;;;;;;2.01;81.04;100981.33;105225;1260;73508;-57
2023/04/28 03:40:38;;;;;;;31.10;15.70;;;;;;;2.07;81.30;100981.20;105159;1260;69201;-59
2023/04/28 03:43:13;;;;;;;28.30;14.70;;;;;;;2.08;81.29;100978.79;105184;1262;69097;-56
2023/04/28 03:46:16;;;;;;;29.70;14.90;;;;;;;2.13;81.50;100980.72;105139;1262;75231;-57
2023/04/28 03:48:45;;;;;;;28.30;13.80;;;;;;;2.17;81.44;100979.20;105225;1263;83491;-57
2023/04/28 03:51:14;;;;;;;29.20;14.50;;;;;;;2.21;81.75;100977.15;105210;1260;73842;-57
2023/04/28 03:53:42;;;;;;;24.50;12.60;;;;;;;2.24;81.38;100978.73;105000;1257;69233;-57
2023/04/28 03:56:10;;;;;;;23.70;12.50;;;;;;;2.28;81.67;100975.64;105242;1263;69202;-57
2023/04/28 03:58:39;;;;;;;22.40;11.60;;;;;;;2.32;81.55;100976.35;105249;1270;75048;-57
2023/04/28 04:01:08;;;;;;;20.40;11.70;;;;;;;2.38;81.74;100973.81;105232;1262;82620;-56
2023/04/28 04:03:36;;;;;;;20.70;11.40;;;;;;;2.43;81.76;100974.87;105020;1264;74064;-56
2023/04/28 04:06:05;;;;;;;22.80;10.60;;;;;;;2.48;81.66;100974.73;105120;1263;69173;-56
2023/04/28 04:08:33;;;;;;;25.00;10.40;;;;;;;2.54;81.79;100976.99;105198;1262;69225;-56
2023/04/28 04:11:02;;;;;;;16.40;9.50;;;;;;;2.62;82.07;100971.52;105167;1260;73585;-57
2023/04/28 04:13:32;;;;;;;19.80;10.30;;;;;;;2.72;82.19;100973.45;105163;1262;84701;-56
2023/04/28 04:16:02;;;;;;;18.80;10.50;;;;;;;2.79;82.30;100974.69;105119;1260;73827;-56
2023/04/28 04:18:31;;;;;;;15.40;9.90;;;;;;;2.88;81.91;100978.17;105249;1261;69198;-56
2023/04/28 04:21:14;;;;;;;14.50;9.30;;;;;;;2.99;82.30;100972.52;105214;1263;69199;-57
2023/04/28 04:23:43;;;;;;;19.40;9.80;;;;;;;3.09;82.64;100969.80;105124;1257;73798;-57
2023/04/28 04:26:12;;;;;;;18.30;11.00;;;;;;;3.17;82.47;100972.92;105205;1260;83520;-56
2023/04/28 04:28:40;;;;;;;19.80;10.40;;;;;;;3.27;82.46;100971.04;105081;1262;72772;-57
2023/04/28 04:31:09;;;;;;;15.70;9.10;;;;;;;3.37;82.31;100970.71;105244;1257;69137;-57
2023/04/28 04:33:37;;;;;;;21.90;10.50;;;;;;;3.46;81.77;100965.88;105060;1262;69141;-57
2023/04/28 04:36:06;;;;;;;18.10;10.30;;;;;;;3.52;81.36;100965.38;105245;1269;75050;-57
2023/04/28 04:38:35;;;;;;;33.00;14.20;;;;;;;3.62;81.49;100962.61;105111;1260;82518;-57
2023/04/28 04:41:25;;;;;;;17.40;9.90;;;;;;;3.72;81.26;100964.35;105164;1260;73887;-57
2023/04/28 04:44:03;;;;;;;18.20;10.20;;;;;;;3.80;81.34;100966.27;105115;1270;69554;-57
2023/04/28 04:46:36;;;;;;;17.50;10.60;;;;;;;3.86;81.25;100965.04;105228;1261;69192;-57
2023/04/28 04:49:04;;;;;;;18.00;10.10;;;;;;;3.92;81.41;100960.70;105138;1261;75038;-57
2023/04/28 04:51:32;;;;;;;15.00;9.50;;;;;;;4.00;81.37;100955.69;105044;1263;82505;-57
2023/04/28 04:54:01;;;;;;;15.60;10.30;;;;;;;4.09;81.71;100948.92;105255;1260;73577;-57
2023/04/28 04:56:30;;;;;;;17.60;9.30;;;;;;;4.21;81.74;100948.56;105211;1261;69203;-56
2023/04/28 04:58:59;;;;;;;15.40;9.60;;;;;;;4.32;81.57;100951.99;105402;1258;69024;-58
2023/04/28 05:01:53;;;;;;;16.90;10.10;;;;;;;4.42;81.42;100947.13;105239;1260;74442;-57
2023/04/28 05:04:21;;;;;;;18.40;10.10;;;;;;;4.53;81.05;100943.11;105303;1260;83558;-56
2023/04/28 05:06:50;;;;;;;15.30;9.60;;;;;;;4.64;80.75;100940.64;105268;1262;73725;-55
2023/04/28 05:09:19;;;;;;;17.30;10.40;;;;;;;4.74;80.37;100940.77;105271;1257;69209;-57
2023/04/28 05:11:47;;;;;;;16.00;9.20;;;;;;;4.84;80.30;100937.26;105266;1261;69771;-58
2023/04/28 05:14:16;;;;;;;17.90;9.70;;;;;;;4.96;80.32;100932.52;105337;1260;74489;-58
2023/04/28 05:16:45;;;;;;;15.80;9.90;;;;;;;5.08;80.25;100935.05;105325;1263;83492;-58
2023/04/28 05:19:16;;;;;;;16.60;10.50;;;;;;;5.17;80.17;100938.29;105249;1258;73888;-57
2023/04/28 05:21:46;;;;;;;20.00;11.20;;;;;;;5.24;79.68;100933.39;105494;1257;69289;-56
2023/04/28 05:24:15;;;;;;;17.70;11.40;;;;;;;5.32;79.69;100933.52;105444;1258;69241;-58
2023/04/28 05:26:43;;;;;;;18.20;11.90;;;;;;;5.38;79.31;100931.39;105485;1257;74853;-55
2023/04/28 05:29:12;;;;;;;17.70;11.50;;;;;;;5.43;78.95;100931.71;105384;1257;82505;-55
2023/04/28 05:31:41;;;;;;;18.50;11.80;;;;;;;5.50;78.90;100931.30;105249;1260;73853;-54
2023/04/28 05:34:09;;;;;;;19.10;11.90;;;;;;;5.59;79.14;100927.77;105286;1260;69184;-54
2023/04/28 05:36:38;;;;;;;22.10;13.10;;;;;;;5.66;79.01;100925.11;105407;1257;69125;-56
2023/04/28 05:39:08;;;;;;;18.80;12.10;;;;;;;5.72;78.92;100923.67;105214;1256;75054;-57
2023/04/28 05:41:38;;;;;;;16.50;10.50;;;;;;;5.79;78.80;100923.27;105323;1257;82999;-54
2023/04/28 05:44:06;;;;;;;17.80;10.80;;;;;;;5.86;78.98;100916.79;105225;1257;72024;-55
2023/04/28 05:46:35;;;;;;;16.50;11.20;;;;;;;5.94;78.59;100914.13;105201;1257;69161;-55
2023/04/28 05:49:04;;;;;;;17.40;10.70;;;;;;;6.03;78.68;100913.02;105259;1259;69180;-54
2023/04/28 05:51:36;;;;;;;20.70;10.60;;;;;;;6.12;78.69;100910.65;105251;1256;73396;-58
2023/04/28 05:54:04;;;;;;;16.60;10.50;;;;;;;6.25;78.76;100907.39;105289;1264;83625;-58
2023/04/28 05:56:36;;;;;;;18.50;11.20;;;;;;;6.37;78.49;100910.73;105188;1260;74047;-58
2023/04/28 05:59:04;;;;;;;16.40;10.40;;;;;;;6.46;78.04;100906.98;105133;1258;69123;-58
2023/04/28 06:01:32;;;;;;;18.40;11.50;;;;;;;6.57;78.00;100902.15;105163;1258;69129;-58
2023/04/28 06:04:01;;;;;;;18.50;11.00;;;;;;;6.68;77.70;100900.11;105243;1260;73000;-58
2023/04/28 06:06:31;;;;;;;18.70;11.40;;;;;;;6.77;77.49;100901.20;105368;1258;82027;-57
2023/04/28 06:08:59;;;;;;;16.80;10.90;;;;;;;6.88;77.75;100903.66;105319;1257;73465;-58
2023/04/28 06:11:27;;;;;;;18.40;11.50;;;;;;;7.00;77.46;100900.36;105118;1258;69084;-58
2023/04/28 06:13:55;;;;;;;21.30;12.50;;;;;;;7.11;76.87;100901.95;105161;1260;69228;-58
2023/04/28 06:16:25;;;;;;;20.00;10.90;;;;;;;7.20;76.67;100896.59;105293;1257;74955;-58
2023/04/28 06:18:53;;;;;;;18.60;11.80;;;;;;;7.28;75.98;100894.90;105215;1260;83389;-58
2023/04/28 06:21:23;;;;;;;18.20;11.30;;;;;;;7.36;76.33;100895.13;105159;1261;73607;-58
2023/04/28 06:23:52;;;;;;;19.00;11.60;;;;;;;7.45;75.84;100890.46;105099;1261;69199;-58
2023/04/28 06:26:20;;;;;;;16.80;11.50;;;;;;;7.56;75.42;100886.30;105450;1257;69116;-58
2023/04/28 06:28:49;;;;;;;17.40;10.90;;;;;;;7.66;75.23;100885.23;105301;1260;73575;-57
2023/04/28 06:31:17;;;;;;;18.30;11.00;;;;;;;7.81;74.87;100884.46;105229;1257;83373;-58
2023/04/28 06:33:46;;;;;;;19.00;10.20;;;;;;;7.99;74.39;100884.14;105203;1256;73930;-58
2023/04/28 06:36:16;;;;;;;17.50;10.60;;;;;;;8.14;73.91;100886.62;105307;1261;69279;-57
2023/04/28 06:38:45;;;;;;;15.30;10.90;;;;;;;8.25;73.32;100881.89;105383;1257;69178;-58
2023/04/28 06:41:13;;;;;;;20.40;11.20;;;;;;;8.30;72.65;100882.33;105270;1258;75161;-58
2023/04/28 06:43:47;;;;;;;17.50;11.60;;;;;;;8.33;72.27;100881.73;105225;1258;81571;-57
2023/04/28 06:46:21;;;;;;;18.10;11.10;;;;;;;8.35;72.00;100877.17;105380;1257;73677;-57
2023/04/28 06:48:49;;;;;;;18.20;11.30;;;;;;;8.37;72.02;100875.23;105318;1260;69231;-58
2023/04/28 06:51:17;;;;;;;18.10;11.60;;;;;;;8.39;72.01;100875.73;105425;1257;69128;-57
2023/04/28 06:53:46;;;;;;;18.70;12.00;;;;;;;8.40;71.87;100874.13;105283;1259;73857;-58
2023/04/28 06:56:14;;;;;;;17.20;11.40;;;;;;;8.47;71.96;100871.03;105449;1257;83520;-57
2023/04/28 06:58:42;;;;;;;16.80;11.80;;;;;;;8.55;71.54;100872.95;105128;1260;72702;-58
2023/04/28 07:01:10;;;;;;;18.40;11.30;;;;;;;8.63;71.32;100869.13;105265;1261;69513;-56
2023/04/28 07:03:38;;;;;;;19.70;12.00;;;;;;;8.72;71.60;100864.93;105270;1256;69148;-57
2023/04/28 07:06:07;;;;;;;16.70;10.20;;;;;;;8.84;71.48;100858.90;105369;1258;73892;-57
2023/04/28 07:08:36;;;;;;;16.80;10.50;;;;;;;8.94;71.11;100857.98;105548;1258;83418;-57
2023/04/28 07:11:05;;;;;;;21.80;10.90;;;;;;;9.03;71.06;100856.73;105415;1258;72581;-57
2023/04/28 07:13:33;;;;;;;14.80;10.50;;;;;;;9.12;70.81;100857.05;105356;1260;69238;-55
2023/04/28 07:16:03;;;;;;;15.50;10.30;;;;;;;9.21;70.38;100850.02;105238;1267;69237;-57
2023/04/28 07:18:31;;;;;;;15.60;10.30;;;;;;;9.32;70.26;100852.21;105328;1258;75017;-59
2023/04/28 07:20:59;;;;;;;16.10;11.20;;;;;;;9.40;69.79;100850.24;105267;1257;83567;-58
2023/04/28 07:23:31;;;;;;;17.70;10.40;;;;;;;9.53;69.80;100846.80;105217;1259;73976;-55
2023/04/28 07:25:59;;;;;;;16.90;10.50;;;;;;;9.66;69.31;100842.96;105222;1261;69113;-55
2023/04/28 07:28:27;;;;;;;14.60;10.30;;;;;;;9.76;69.18;100844.61;105454;1256;69181;-55
2023/04/28 07:30:56;;;;;;;69.40;34.30;;;;;;;9.86;68.67;100843.31;105421;1259;73499;-56
2023/04/28 07:33:24;;;;;;;19.10;12.20;;;;;;;9.91;67.91;100840.38;105367;1257;82498;-58
2023/04/28 07:35:52;;;;;;;46.60;24.40;;;;;;;9.95;68.10;100834.86;105400;1259;73398;-59
2023/04/28 07:38:21;;;;;;;34.70;18.70;;;;;;;10.03;67.49;100831.67;105311;1257;69270;-59
2023/04/28 07:40:49;;;;;;;39.20;21.80;;;;;;;10.09;67.69;100831.50;105222;1258;69185;-59
2023/04/28 07:43:22;;;;;;;18.80;13.00;;;;;;;10.23;67.44;100824.97;105198;1260;73971;-59
2023/04/28 07:45:50;;;;;;;16.70;11.00;;;;;;;10.37;67.56;100822.01;105194;1257;81643;-59
2023/04/28 07:48:18;;;;;;;14.50;10.40;;;;;;;10.53;67.47;100819.77;105212;1258;72672;-59
2023/04/28 07:50:47;;;;;;;19.60;12.70;;;;;;;10.63;66.72;100813.01;105227;1258;69226;-59
2023/04/28 07:53:15;;;;;;;17.60;11.90;;;;;;;10.69;66.28;100807.40;105270;1260;69218;-59
2023/04/28 07:55:44;;;;;;;18.90;11.00;;;;;;;10.81;66.47;100804.59;105322;1257;74053;-59
2023/04/28 07:58:12;;;;;;;47.20;22.00;;;;;;;10.92;65.61;100803.72;105263;1258;81937;-59
2023/04/28 08:00:41;;;;;;;18.70;12.30;;;;;;;10.95;64.89;100803.44;105200;1257;73408;-59
2023/04/28 08:03:09;;;;;;;14.30;10.10;;;;;;;11.08;65.53;100800.57;105276;1257;69143;-59
2023/04/28 08:05:38;;;;;;;15.20;10.80;;;;;;;11.27;65.57;100794.36;105191;1257;69064;-60
2023/04/28 08:08:07;;;;;;;15.20;10.20;;;;;;;11.43;65.29;100797.66;105283;1256;75033;-59
2023/04/28 08:10:35;;;;;;;13.60;9.70;;;;;;;11.55;64.78;100797.20;105207;1257;83593;-59
2023/04/28 08:13:03;;;;;;;12.70;9.20;;;;;;;11.67;64.40;100790.16;105211;1257;73875;-59
2023/04/28 08:15:31;;;;;;;31.70;16.80;;;;;;;11.77;63.24;100788.23;105172;1260;69260;-59
2023/04/28 08:17:59;;;;;;;25.60;14.90;;;;;;;11.73;62.18;100784.69;105200;1258;69084;-59
2023/04/28 08:20:29;;;;;;;13.00;9.20;;;;;;;11.76;62.45;100778.44;105180;1256;73955;-59
2023/04/28 08:22:57;;;;;;;14.50;8.80;;;;;;;11.96;62.80;100771.64;105245;1257;83767;-59
2023/04/28 08:25:26;;;;;;;12.30;7.60;;;;;;;12.17;62.39;100774.20;105234;1261;72957;-59
2023/04/28 08:27:56;;;;;;;14.00;9.00;;;;;;;12.28;61.24;100769.23;105252;1257;69144;-59
2023/04/28 08:30:24;;;;;;;10.00;8.00;;;;;;;12.33;60.85;100766.97;105303;1258;69069;-59
2023/04/28 08:32:52;;;;;;;12.30;8.30;;;;;;;12.42;60.74;100764.83;105220;1257;74916;-59
2023/04/28 08:35:21;;;;;;;14.90;8.70;;;;;;;12.62;60.69;100761.61;105320;1256;82416;-60
2023/04/28 08:37:51;;;;;;;10.20;7.00;;;;;;;12.80;60.25;100759.28;105265;1258;73312;-58
2023/04/28 08:40:19;;;;;;;12.00;7.40;;;;;;;12.96;59.94;100751.95;105231;1257;69184;-58
2023/04/28 08:42:49;;;;;;;11.30;6.90;;;;;;;13.13;59.82;100755.30;105240;1260;69182;-58
2023/04/28 08:45:17;;;;;;;13.50;7.00;;;;;;;13.27;58.76;100757.39;105260;1260;73959;-58
2023/04/28 08:47:48;;;;;;;15.20;6.50;;;;;;;13.32;58.06;100755.43;105179;1257;82322;-58
2023/04/28 08:50:21;;;;;;;10.70;6.50;;;;;;;13.39;57.14;100756.52;105191;1260;74233;-58
2023/04/28 08:52:51;;;;;;;11.60;6.80;;;;;;;13.37;56.45;100753.43;105212;1260;69172;-59
2023/04/28 08:55:20;;;;;;;10.90;6.50;;;;;;;13.43;56.31;100751.23;105156;1257;69157;-58
2023/04/28 08:57:50;;;;;;;10.10;6.80;;;;;;;13.54;56.11;100745.83;105292;1256;74861;-58
2023/04/28 09:00:18;;;;;;;13.00;7.10;;;;;;;13.65;55.65;100743.78;105274;1256;82682;-58
2023/04/28 09:02:46;;;;;;;12.60;7.30;;;;;;;13.72;55.48;100741.03;105128;1256;72785;-58
2023/04/28 09:05:15;;;;;;;14.00;6.90;;;;;;;13.91;55.43;100743.18;105139;1256;69078;-58
2023/04/28 09:07:47;;;;;;;14.60;7.40;;;;;;;14.01;54.20;100742.54;105221;1261;69193;-60
2023/04/28 09:10:23;;;;;;;10.70;7.50;;;;;;;13.99;53.67;100737.14;105237;1260;74315;-61
2023/04/28 09:12:53;;;;;;;11.80;6.80;;;;;;;14.06;53.65;100734.04;105231;1258;83321;-60
2023/04/28 09:15:40;;;;;;;9.70;6.30;;;;;;;14.24;53.43;100733.20;105191;1257;75064;-60
2023/04/28 09:18:13;;;;;;;9.90;6.90;;;;;;;14.39;52.90;100729.00;105262;1261;69119;-60
2023/04/28 09:20:43;;;;;;;13.90;6.70;;;;;;;14.42;52.57;100720.94;105253;1256;69034;-60
2023/04/28 09:23:18;;;;;;;11.60;7.00;;;;;;;14.57;52.65;100716.51;105213;1260;75070;-60
2023/04/28 09:25:58;;;;;;;12.40;6.90;;;;;;;14.70;52.06;100717.67;105265;1257;82115;-58
2023/04/28 09:28:27;;;;;;;15.90;8.00;;;;;;;14.72;51.53;100713.33;105181;1260;73930;-59
2023/04/28 09:30:55;;;;;;;10.90;6.70;;;;;;;14.71;51.17;100712.35;105115;1262;69135;-59
2023/04/28 09:33:24;;;;;;;9.70;7.70;;;;;;;14.80;51.25;100707.31;105278;1258;69226;-59
2023/04/28 09:35:53;;;;;;;10.60;7.50;;;;;;;15.01;51.24;100706.43;105154;1262;73245;-60
2023/04/28 09:38:22;;;;;;;17.90;7.70;;;;;;;15.18;51.29;100702.41;105261;1260;83547;-59
2023/04/28 09:41:01;;;;;;;11.50;8.00;;;;;;;15.37;51.14;100699.67;105215;1256;73723;-59
2023/04/28 09:43:32;;;;;;;11.60;8.70;;;;;;;15.55;50.72;100694.52;105184;1260;69132;-60
2023/04/28 09:46:02;;;;;;;9.90;7.40;;;;;;;15.71;50.77;100689.61;105239;1261;69085;-60
2023/04/28 09:48:35;;;;;;;9.60;6.80;;;;;;;15.88;50.32;100687.44;105299;1257;74754;-60
2023/04/28 09:51:05;;;;;;;9.40;6.10;;;;;;;15.96;49.26;100682.60;105242;1257;82683;-58
2023/04/28 09:53:34;;;;;;;10.90;6.50;;;;;;;16.07;49.04;100678.67;105296;1260;73889;-58
2023/04/28 09:56:04;;;;;;;9.50;6.10;;;;;;;16.24;48.99;100677.89;105257;1260;69202;-58
2023/04/28 09:58:34;;;;;;;11.10;6.80;;;;;;;16.44;48.62;100673.77;105259;1257;69384;-58
2023/04/28 10:01:03;;;;;;;12.30;7.80;;;;;;;16.55;48.41;100667.32;105253;1260;76024;-61
2023/04/28 10:03:31;;;;;;;12.60;7.40;;;;;;;16.75;48.35;100670.27;105138;1256;82644;-58
2023/04/28 10:06:01;;;;;;;12.70;6.60;;;;;;;16.99;48.42;100660.36;105194;1256;73867;-58
2023/04/28 10:08:29;;;;;;;12.30;6.20;;;;;;;17.26;48.18;100653.25;105096;1256;69187;-61
2023/04/28 10:10:57;;;;;;;10.20;6.00;;;;;;;17.56;47.49;100651.97;105244;1255;69222;-58
2023/04/28 10:13:26;;;;;;;7.50;5.70;;;;;;;17.82;47.13;100649.44;105110;1257;74045;-58
2023/04/28 10:15:54;;;;;;;10.90;6.30;;;;;;;18.09;46.61;100644.05;105282;1256;83915;-58
2023/04/28 10:18:23;;;;;;;15.40;5.80;;;;;;;18.24;46.01;100639.34;105217;1257;72943;-58
2023/04/28 10:20:58;;;;;;;10.40;5.80;;;;;;;18.33;45.65;100631.66;105240;1257;69179;-58
2023/04/28 10:23:37;;;;;;;10.70;5.40;;;;;;;18.46;45.12;100634.34;105222;1257;69200;-59
2023/04/28 10:26:10;;;;;;;9.50;5.60;;;;;;;18.48;44.25;100635.13;105253;1260;75002;-58
2023/04/28 10:28:49;;;;;;;7.50;4.70;;;;;;;18.47;44.29;100628.23;105211;1256;82650;-59
2023/04/28 10:31:22;;;;;;;8.00;5.40;;;;;;;18.70;44.49;100622.34;105217;1256;74046;-58
2023/04/28 10:33:50;;;;;;;8.50;5.10;;;;;;;19.00;44.35;100616.21;105227;1256;69068;-59
2023/04/28 10:36:47;;;;;;;8.00;5.20;;;;;;;19.25;44.11;100616.61;105246;1260;69254;-58
2023/04/28 10:39:15;;;;;;;9.80;5.40;;;;;;;19.55;43.61;100607.79;105258;1256;74583;-58
2023/04/28 10:41:47;;;;;;;7.70;5.30;;;;;;;19.82;43.40;100606.59;105261;1260;83191;-58
2023/04/28 10:44:31;;;;;;;12.30;5.00;;;;;;;19.98;43.23;100605.07;105203;1256;72822;-59
2023/04/28 10:47:10;;;;;;;8.50;5.20;;;;;;;20.20;42.65;100606.66;105237;1257;69077;-59
2023/04/28 10:50:11;;;;;;;7.80;4.70;;;;;;;20.40;42.03;100600.88;105273;1256;69128;-58
2023/04/28 10:52:47;;;;;;;10.50;5.30;;;;;;;20.51;41.55;100596.89;104940;1257;74821;-59
2023/04/28 10:55:35;;;;;;;7.30;5.10;;;;;;;20.57;41.46;100598.05;105268;1256;82053;-59
2023/04/28 10:58:16;;;;;;;8.00;5.10;;;;;;;20.77;41.06;100595.80;105236;1256;73097;-58
2023/04/28 11:00:47;;;;;;;8.20;4.90;;;;;;;20.90;40.78;100590.92;105208;1261;69138;-58
2023/04/28 11:03:37;;;;;;;8.10;4.60;;;;;;;21.10;40.67;100594.66;105110;1262;69228;-58
2023/04/28 11:06:19;;;;;;;9.10;4.70;;;;;;;21.21;40.16;100590.98;105225;1260;75293;-58
2023/04/28 11:08:48;;;;;;;6.80;4.40;;;;;;;21.37;40.34;100584.21;105242;1260;82832;-59
2023/04/28 11:11:21;;;;;;;7.50;4.40;;;;;;;21.63;40.12;100586.44;105314;1260;73985;-59
2023/04/28 11:13:50;;;;;;;7.30;4.20;;;;;;;21.70;39.45;100586.95;105224;1256;69274;-59
2023/04/28 11:16:20;;;;;;;8.60;4.00;;;;;;;21.63;38.79;100576.86;105254;1256;69292;-60
2023/04/28 11:18:52;;;;;;;8.60;4.20;;;;;;;21.66;39.22;100571.08;105269;1260;74244;-58
2023/04/28 11:21:24;;;;;;;7.20;4.10;;;;;;;21.93;39.28;100566.19;105209;1260;83201;-58
2023/04/28 11:23:52;;;;;;;6.90;4.30;;;;;;;21.99;39.18;100564.48;105217;1256;73962;-57
2023/04/28 11:26:20;;;;;;;8.50;4.50;;;;;;;22.03;39.03;100563.95;105229;1261;69125;-59